BAW65J EGCC-EGLL
Flight info
| Callsign | BAW65J |
|---|---|
| Flight time | 0h 45m |
| Altitude | 19000 |
| Route | LISTO2S LISTO L612 HON HON2H |
| Aircraft | A20N/M-SDE2E3FGHIRWXY/LB1 |
Departure
| Time | 2026-05-06 15:25 |
|---|---|
| Airport | Manchester Airport (EGCC) |
Arrival
| Time | 2026-05-06 16:10 |
|---|---|
| Airport | London Heathrow Airport (EGLL) |
| Time | Latitude | Longitude | Altitude | Speed | Heading |
|---|---|---|---|---|---|
| 2026-05-06 15:02 | 53.36671 | -2.28124 | 259 ft | 0 kts | 44° |
| 2026-05-06 15:14 | 53.36663 | -2.28136 | 259 ft | 2 kts | 44° |
| 2026-05-06 15:14 | 53.36652 | -2.28153 | 259 ft | 2 kts | 44° |
| 2026-05-06 15:14 | 53.36641 | -2.28171 | 259 ft | 2 kts | 44° |
| 2026-05-06 15:15 | 53.36631 | -2.28188 | 259 ft | 2 kts | 44° |
| 2026-05-06 15:15 | 53.36620 | -2.28204 | 259 ft | 1 kts | 45° |
| 2026-05-06 15:15 | 53.36618 | -2.28220 | 259 ft | 1 kts | 112° |
| 2026-05-06 15:15 | 53.36622 | -2.28230 | 259 ft | 1 kts | 143° |
| 2026-05-06 15:16 | 53.36625 | -2.28235 | 259 ft | 0 kts | 135° |
| 2026-05-06 15:17 | 53.36625 | -2.28234 | 259 ft | 0 kts | 135° |
| 2026-05-06 15:18 | 53.36624 | -2.28233 | 259 ft | 1 kts | 135° |
| 2026-05-06 15:18 | 53.36589 | -2.28174 | 259 ft | 8 kts | 134° |
| 2026-05-06 15:18 | 53.36512 | -2.28044 | 259 ft | 16 kts | 137° |
| 2026-05-06 15:19 | 53.36418 | -2.27937 | 259 ft | 15 kts | 166° |
| 2026-05-06 15:19 | 53.36335 | -2.28031 | 259 ft | 12 kts | 220° |
| 2026-05-06 15:19 | 53.36285 | -2.28068 | 259 ft | 0 kts | 193° |
| 2026-05-06 15:20 | 53.36275 | -2.28072 | 259 ft | 3 kts | 193° |
| 2026-05-06 15:20 | 53.36230 | -2.28086 | 259 ft | 9 kts | 178° |
| 2026-05-06 15:20 | 53.36167 | -2.28025 | 259 ft | 10 kts | 136° |
| 2026-05-06 15:21 | 53.36113 | -2.27931 | 259 ft | 11 kts | 134° |
| 2026-05-06 15:21 | 53.36042 | -2.27841 | 259 ft | 22 kts | 166° |
| 2026-05-06 15:21 | 53.35841 | -2.27859 | 259 ft | 29 kts | 185° |
| 2026-05-06 15:21 | 53.35655 | -2.27890 | 259 ft | 15 kts | 185° |
| 2026-05-06 15:22 | 53.35600 | -2.27901 | 259 ft | 9 kts | 187° |
| 2026-05-06 15:22 | 53.35475 | -2.27923 | 259 ft | 20 kts | 198° |
| 2026-05-06 15:22 | 53.35338 | -2.28116 | 259 ft | 37 kts | 225° |
| 2026-05-06 15:22 | 53.35213 | -2.28340 | 259 ft | 22 kts | 230° |
| 2026-05-06 15:23 | 53.35115 | -2.28540 | 259 ft | 21 kts | 232° |
| 2026-05-06 15:23 | 53.34998 | -2.28774 | 259 ft | 28 kts | 227° |
| 2026-05-06 15:23 | 53.34866 | -2.28996 | 258 ft | 21 kts | 225° |
| 2026-05-06 15:23 | 53.34783 | -2.29072 | 259 ft | 12 kts | 184° |
| 2026-05-06 15:24 | 53.34700 | -2.29028 | 259 ft | 14 kts | 134° |
| 2026-05-06 15:24 | 53.34704 | -2.28881 | 259 ft | 8 kts | 54° |
| 2026-05-06 15:24 | 53.34715 | -2.28858 | 259 ft | 10 kts | 53° |
| 2026-05-06 15:24 | 53.34941 | -2.28389 | 259 ft | 90 kts | 51° |
| 2026-05-06 15:25 | 53.35475 | -2.27284 | 259 ft | 153 kts | 51° |
| 2026-05-06 15:25 | 53.36209 | -2.25777 | 679 ft | 170 kts | 50° |
| 2026-05-06 15:25 | 53.36951 | -2.24272 | 1363 ft | 170 kts | 51° |
| 2026-05-06 15:25 | 53.37463 | -2.22598 | 2035 ft | 171 kts | 86° |
| 2026-05-06 15:26 | 53.37333 | -2.20617 | 2541 ft | 184 kts | 105° |
| 2026-05-06 15:26 | 53.36660 | -2.18733 | 2995 ft | 201 kts | 138° |
| 2026-05-06 15:26 | 53.35435 | -2.17304 | 3434 ft | 224 kts | 156° |
| 2026-05-06 15:26 | 53.33893 | -2.16673 | 3973 ft | 242 kts | 180° |
| 2026-05-06 15:27 | 53.32145 | -2.16903 | 4552 ft | 259 kts | 187° |
| 2026-05-06 15:27 | 53.30341 | -2.17296 | 4893 ft | 266 kts | 187° |
| 2026-05-06 15:27 | 53.28511 | -2.17670 | 4949 ft | 267 kts | 187° |
| 2026-05-06 15:27 | 53.26664 | -2.18006 | 4952 ft | 267 kts | 186° |
| 2026-05-06 15:28 | 53.24801 | -2.18318 | 4954 ft | 267 kts | 186° |
| 2026-05-06 15:28 | 53.22955 | -2.18615 | 4954 ft | 267 kts | 186° |
| 2026-05-06 15:28 | 53.21119 | -2.18906 | 4954 ft | 267 kts | 186° |
| 2026-05-06 15:28 | 53.19275 | -2.19197 | 4955 ft | 267 kts | 186° |
| 2026-05-06 15:29 | 53.17431 | -2.19488 | 4955 ft | 267 kts | 186° |
| 2026-05-06 15:29 | 53.15576 | -2.19753 | 4952 ft | 267 kts | 181° |
| 2026-05-06 15:29 | 53.13737 | -2.19452 | 4968 ft | 270 kts | 166° |
| 2026-05-06 15:29 | 53.11969 | -2.18419 | 5461 ft | 278 kts | 158° |
| 2026-05-06 15:30 | 53.10268 | -2.17228 | 6513 ft | 274 kts | 157° |
| 2026-05-06 15:30 | 53.08521 | -2.15987 | 7447 ft | 276 kts | 157° |
| 2026-05-06 15:30 | 53.06748 | -2.14735 | 8299 ft | 280 kts | 157° |
| 2026-05-06 15:30 | 53.04959 | -2.13482 | 9144 ft | 284 kts | 157° |
| 2026-05-06 15:31 | 53.03241 | -2.12287 | 9928 ft | 287 kts | 157° |
| 2026-05-06 15:31 | 53.01393 | -2.11007 | 10627 ft | 295 kts | 158° |
| 2026-05-06 15:31 | 52.99460 | -2.09672 | 11039 ft | 313 kts | 158° |
| 2026-05-06 15:32 | 52.95182 | -2.06726 | 11758 ft | 349 kts | 158° |
| 2026-05-06 15:32 | 52.92910 | -2.05167 | 12062 ft | 367 kts | 158° |
| 2026-05-06 15:32 | 52.90504 | -2.03516 | 12536 ft | 378 kts | 158° |
| 2026-05-06 15:32 | 52.88075 | -2.01853 | 13241 ft | 381 kts | 158° |
| 2026-05-06 15:33 | 52.85625 | -2.00177 | 13944 ft | 384 kts | 158° |
| 2026-05-06 15:33 | 52.83171 | -1.98500 | 14598 ft | 388 kts | 158° |
| 2026-05-06 15:33 | 52.80659 | -1.96785 | 15247 ft | 392 kts | 158° |
| 2026-05-06 15:33 | 52.78135 | -1.95064 | 15879 ft | 396 kts | 158° |
| 2026-05-06 15:34 | 52.75583 | -1.93326 | 16497 ft | 399 kts | 158° |
| 2026-05-06 15:34 | 52.73039 | -1.91596 | 17093 ft | 403 kts | 158° |
| 2026-05-06 15:34 | 52.70428 | -1.89822 | 17684 ft | 406 kts | 158° |
| 2026-05-06 15:34 | 52.67798 | -1.88037 | 18261 ft | 410 kts | 158° |
| 2026-05-06 15:35 | 52.65173 | -1.86259 | 18757 ft | 413 kts | 158° |
| 2026-05-06 15:35 | 52.62499 | -1.84448 | 18990 ft | 415 kts | 158° |
| 2026-05-06 15:35 | 52.59846 | -1.82656 | 18995 ft | 414 kts | 158° |
| 2026-05-06 15:35 | 52.57209 | -1.80875 | 18997 ft | 414 kts | 158° |
| 2026-05-06 15:36 | 52.54520 | -1.79063 | 18998 ft | 414 kts | 158° |
| 2026-05-06 15:36 | 52.51874 | -1.77281 | 18998 ft | 414 kts | 158° |
| 2026-05-06 15:36 | 52.49220 | -1.75496 | 18999 ft | 414 kts | 158° |
| 2026-05-06 15:36 | 52.46549 | -1.73702 | 18999 ft | 414 kts | 158° |
| 2026-05-06 15:37 | 52.43880 | -1.71912 | 18999 ft | 414 kts | 158° |
| 2026-05-06 15:37 | 52.41233 | -1.70139 | 18999 ft | 414 kts | 158° |
| 2026-05-06 15:37 | 52.38564 | -1.68354 | 18999 ft | 414 kts | 158° |
| 2026-05-06 15:37 | 52.35902 | -1.66576 | 18999 ft | 414 kts | 158° |
| 2026-05-06 15:38 | 52.33249 | -1.64829 | 18999 ft | 414 kts | 158° |
| 2026-05-06 15:38 | 52.30565 | -1.63079 | 18999 ft | 414 kts | 158° |
| 2026-05-06 15:38 | 52.27897 | -1.61345 | 18999 ft | 414 kts | 158° |
| 2026-05-06 15:38 | 52.25222 | -1.59609 | 18999 ft | 414 kts | 158° |
| 2026-05-06 15:39 | 52.22558 | -1.57882 | 18999 ft | 414 kts | 158° |
| 2026-05-06 15:39 | 52.19887 | -1.56152 | 18999 ft | 414 kts | 158° |
| 2026-05-06 15:39 | 52.17217 | -1.54425 | 18999 ft | 414 kts | 158° |
| 2026-05-06 15:39 | 52.14533 | -1.52690 | 18999 ft | 414 kts | 158° |
| 2026-05-06 15:40 | 52.11873 | -1.50974 | 18999 ft | 414 kts | 158° |
| 2026-05-06 15:40 | 52.09182 | -1.49239 | 18999 ft | 414 kts | 158° |
| 2026-05-06 15:40 | 52.06512 | -1.47519 | 18999 ft | 414 kts | 158° |
| 2026-05-06 15:40 | 52.03831 | -1.45794 | 18999 ft | 414 kts | 158° |
| 2026-05-06 15:41 | 52.01172 | -1.44085 | 18999 ft | 414 kts | 158° |
| 2026-05-06 15:41 | 51.98481 | -1.42357 | 18999 ft | 414 kts | 158° |
| 2026-05-06 15:41 | 51.95820 | -1.40651 | 18999 ft | 414 kts | 158° |
| 2026-05-06 15:41 | 51.93129 | -1.38926 | 18999 ft | 414 kts | 158° |
| 2026-05-06 15:42 | 51.90456 | -1.37216 | 18999 ft | 414 kts | 158° |
| 2026-05-06 15:42 | 51.87796 | -1.35516 | 18999 ft | 414 kts | 158° |
| 2026-05-06 15:42 | 51.85104 | -1.33797 | 18999 ft | 414 kts | 159° |
| 2026-05-06 15:42 | 51.82406 | -1.32076 | 18999 ft | 414 kts | 159° |
| 2026-05-06 15:43 | 51.79728 | -1.30369 | 18999 ft | 414 kts | 159° |
| 2026-05-06 15:43 | 51.77060 | -1.28671 | 18999 ft | 414 kts | 159° |
| 2026-05-06 15:43 | 51.74344 | -1.26944 | 18997 ft | 411 kts | 159° |
| 2026-05-06 15:43 | 51.71703 | -1.25267 | 18993 ft | 393 kts | 159° |
| 2026-05-06 15:44 | 51.69202 | -1.23680 | 18991 ft | 375 kts | 159° |
| 2026-05-06 15:44 | 51.66828 | -1.22175 | 18977 ft | 359 kts | 159° |
| 2026-05-06 15:44 | 51.64543 | -1.20728 | 18774 ft | 349 kts | 159° |
| 2026-05-06 15:44 | 51.62311 | -1.19315 | 18584 ft | 339 kts | 159° |
| 2026-05-06 15:45 | 51.60148 | -1.17948 | 18401 ft | 329 kts | 159° |
| 2026-05-06 15:45 | 51.58048 | -1.16654 | 18223 ft | 319 kts | 163° |
| 2026-05-06 15:45 | 51.55878 | -1.16237 | 18009 ft | 310 kts | 187° |
| 2026-05-06 15:45 | 51.53833 | -1.17212 | 17558 ft | 311 kts | 210° |
| 2026-05-06 15:46 | 51.52196 | -1.19472 | 17053 ft | 312 kts | 234° |
| 2026-05-06 15:46 | 51.51280 | -1.22614 | 16550 ft | 313 kts | 258° |
| 2026-05-06 15:46 | 51.51237 | -1.26060 | 16052 ft | 314 kts | 282° |
| 2026-05-06 15:46 | 51.52072 | -1.29272 | 15550 ft | 315 kts | 306° |
| 2026-05-06 15:47 | 51.53695 | -1.31722 | 15037 ft | 316 kts | 330° |
| 2026-05-06 15:47 | 51.55750 | -1.32869 | 14535 ft | 317 kts | 354° |
| 2026-05-06 15:47 | 51.57928 | -1.32589 | 14033 ft | 317 kts | 18° |
| 2026-05-06 15:47 | 51.59860 | -1.30915 | 13530 ft | 318 kts | 41° |
| 2026-05-06 15:48 | 51.61217 | -1.28106 | 13022 ft | 318 kts | 65° |
| 2026-05-06 15:48 | 51.61751 | -1.24695 | 12521 ft | 318 kts | 89° |
| 2026-05-06 15:48 | 51.61395 | -1.21222 | 12019 ft | 318 kts | 112° |
| 2026-05-06 15:48 | 51.60205 | -1.18266 | 11518 ft | 318 kts | 136° |
| 2026-05-06 15:49 | 51.58414 | -1.16212 | 11027 ft | 318 kts | 151° |
| 2026-05-06 15:49 | 51.56456 | -1.14589 | 10530 ft | 318 kts | 154° |
| 2026-05-06 15:49 | 51.54446 | -1.13033 | 10031 ft | 309 kts | 154° |
| 2026-05-06 15:49 | 51.52556 | -1.11589 | 9535 ft | 295 kts | 155° |
| 2026-05-06 15:50 | 51.50732 | -1.10198 | 8930 ft | 288 kts | 155° |
| 2026-05-06 15:50 | 51.48945 | -1.08836 | 8335 ft | 280 kts | 155° |
| 2026-05-06 15:50 | 51.47214 | -1.07519 | 8031 ft | 278 kts | 155° |
| 2026-05-06 15:50 | 51.45445 | -1.06174 | 8001 ft | 279 kts | 155° |
| 2026-05-06 15:51 | 51.43697 | -1.04846 | 7999 ft | 279 kts | 155° |
| 2026-05-06 15:51 | 51.41933 | -1.03507 | 7989 ft | 279 kts | 155° |
| 2026-05-06 15:51 | 51.40178 | -1.02176 | 7995 ft | 279 kts | 155° |
| 2026-05-06 15:51 | 51.38402 | -1.00830 | 7998 ft | 279 kts | 155° |
| 2026-05-06 15:52 | 51.36655 | -0.99507 | 7999 ft | 279 kts | 155° |
| 2026-05-06 15:52 | 51.34896 | -0.98175 | 7999 ft | 279 kts | 155° |
| 2026-05-06 15:52 | 51.33136 | -0.96845 | 7999 ft | 279 kts | 155° |
| 2026-05-06 15:52 | 51.31393 | -0.95535 | 7999 ft | 279 kts | 155° |
| 2026-05-06 15:53 | 51.29866 | -0.94016 | 7984 ft | 279 kts | 135° |
| 2026-05-06 15:53 | 51.28653 | -0.91517 | 8000 ft | 279 kts | 122° |
| 2026-05-06 15:53 | 51.27657 | -0.88884 | 8000 ft | 279 kts | 120° |
| 2026-05-06 15:53 | 51.26688 | -0.86198 | 8000 ft | 279 kts | 120° |
| 2026-05-06 15:54 | 51.25723 | -0.83498 | 8000 ft | 279 kts | 120° |
| 2026-05-06 15:54 | 51.24833 | -0.80825 | 7995 ft | 279 kts | 111° |
| 2026-05-06 15:54 | 51.24446 | -0.77778 | 7998 ft | 279 kts | 94° |
| 2026-05-06 15:54 | 51.24382 | -0.74650 | 8000 ft | 279 kts | 90° |
| 2026-05-06 15:55 | 51.24378 | -0.71559 | 8000 ft | 279 kts | 89° |
| 2026-05-06 15:55 | 51.24385 | -0.68439 | 8000 ft | 279 kts | 89° |
| 2026-05-06 15:55 | 51.24394 | -0.65335 | 8000 ft | 279 kts | 89° |
| 2026-05-06 15:55 | 51.24402 | -0.62257 | 8000 ft | 279 kts | 89° |
| 2026-05-06 15:56 | 51.24410 | -0.59153 | 8000 ft | 279 kts | 89° |
| 2026-05-06 15:56 | 51.24418 | -0.56035 | 8000 ft | 279 kts | 89° |
| 2026-05-06 15:56 | 51.24426 | -0.52926 | 8000 ft | 279 kts | 89° |
| 2026-05-06 15:56 | 51.24433 | -0.49836 | 8000 ft | 279 kts | 89° |
| 2026-05-06 15:57 | 51.24440 | -0.46765 | 8000 ft | 279 kts | 89° |
| 2026-05-06 15:57 | 51.24446 | -0.43640 | 8000 ft | 279 kts | 89° |
| 2026-05-06 15:57 | 51.24452 | -0.40567 | 8000 ft | 279 kts | 89° |
| 2026-05-06 15:57 | 51.24458 | -0.37436 | 8000 ft | 279 kts | 89° |
| 2026-05-06 15:58 | 51.24463 | -0.34354 | 8000 ft | 279 kts | 90° |
| 2026-05-06 15:58 | 51.24550 | -0.31229 | 7990 ft | 279 kts | 78° |
| 2026-05-06 15:58 | 51.25330 | -0.28437 | 7991 ft | 279 kts | 51° |
| 2026-05-06 15:58 | 51.26837 | -0.26497 | 7996 ft | 279 kts | 24° |
| 2026-05-06 15:59 | 51.28733 | -0.25876 | 7998 ft | 279 kts | 356° |
| 2026-05-06 15:59 | 51.30566 | -0.26689 | 7999 ft | 279 kts | 329° |
| 2026-05-06 15:59 | 51.31995 | -0.28793 | 7999 ft | 279 kts | 302° |
| 2026-05-06 15:59 | 51.32684 | -0.31663 | 8007 ft | 279 kts | 281° |
| 2026-05-06 16:00 | 51.32953 | -0.34714 | 8005 ft | 279 kts | 276° |
| 2026-05-06 16:00 | 51.33137 | -0.37818 | 8002 ft | 279 kts | 275° |
| 2026-05-06 16:00 | 51.33280 | -0.40474 | 8001 ft | 279 kts | 275° |
| 2026-05-06 16:00 | 51.33443 | -0.43555 | 7999 ft | 277 kts | 275° |
| 2026-05-06 16:01 | 51.33600 | -0.46560 | 7949 ft | 264 kts | 275° |
| 2026-05-06 16:01 | 51.33755 | -0.49519 | 7473 ft | 268 kts | 275° |
| 2026-05-06 16:01 | 51.33909 | -0.52475 | 7085 ft | 268 kts | 275° |
| 2026-05-06 16:01 | 51.34061 | -0.55385 | 7007 ft | 255 kts | 275° |
| 2026-05-06 16:02 | 51.34204 | -0.58137 | 7002 ft | 242 kts | 275° |
| 2026-05-06 16:02 | 51.34344 | -0.60839 | 7007 ft | 242 kts | 275° |
| 2026-05-06 16:02 | 51.34482 | -0.63513 | 7008 ft | 242 kts | 275° |
| 2026-05-06 16:02 | 51.34620 | -0.66168 | 7008 ft | 242 kts | 274° |
| 2026-05-06 16:03 | 51.34758 | -0.68855 | 7008 ft | 242 kts | 274° |
| 2026-05-06 16:03 | 51.34895 | -0.71524 | 7008 ft | 242 kts | 274° |
| 2026-05-06 16:03 | 51.35033 | -0.74205 | 6915 ft | 244 kts | 274° |
| 2026-05-06 16:03 | 51.35163 | -0.76758 | 6458 ft | 251 kts | 274° |
| 2026-05-06 16:04 | 51.35305 | -0.79531 | 5966 ft | 257 kts | 274° |
| 2026-05-06 16:04 | 51.35474 | -0.82422 | 5461 ft | 263 kts | 280° |
| 2026-05-06 16:04 | 51.36175 | -0.85093 | 4949 ft | 267 kts | 308° |
| 2026-05-06 16:04 | 51.37598 | -0.86956 | 4448 ft | 270 kts | 336° |
| 2026-05-06 16:05 | 51.39409 | -0.87632 | 4081 ft | 268 kts | 355° |
| 2026-05-06 16:05 | 51.41241 | -0.87761 | 4008 ft | 254 kts | 359° |
| 2026-05-06 16:05 | 51.42953 | -0.87690 | 3993 ft | 239 kts | 12° |
| 2026-05-06 16:05 | 51.44379 | -0.86590 | 3986 ft | 222 kts | 44° |
| 2026-05-06 16:06 | 51.45309 | -0.84738 | 3998 ft | 206 kts | 57° |
| 2026-05-06 16:06 | 51.46046 | -0.82774 | 3966 ft | 204 kts | 60° |
| 2026-05-06 16:06 | 51.46738 | -0.80759 | 3529 ft | 214 kts | 61° |
| 2026-05-06 16:06 | 51.47362 | -0.78528 | 3098 ft | 220 kts | 77° |
| 2026-05-06 16:07 | 51.47591 | -0.76126 | 3016 ft | 221 kts | 85° |
| 2026-05-06 16:07 | 51.47700 | -0.73675 | 3006 ft | 214 kts | 88° |
| 2026-05-06 16:07 | 51.47730 | -0.71352 | 2998 ft | 199 kts | 90° |
| 2026-05-06 16:07 | 51.47728 | -0.69197 | 2993 ft | 185 kts | 90° |
| 2026-05-06 16:08 | 51.47722 | -0.67191 | 2988 ft | 177 kts | 90° |
| 2026-05-06 16:08 | 51.47720 | -0.65231 | 3000 ft | 176 kts | 90° |
| 2026-05-06 16:08 | 51.47721 | -0.63252 | 3009 ft | 179 kts | 89° |
| 2026-05-06 16:08 | 51.47709 | -0.61119 | 2618 ft | 199 kts | 91° |
| 2026-05-06 16:09 | 51.47669 | -0.58921 | 2079 ft | 195 kts | 91° |
| 2026-05-06 16:09 | 51.47660 | -0.56783 | 1504 ft | 193 kts | 89° |
| 2026-05-06 16:09 | 51.47681 | -0.54660 | 1007 ft | 187 kts | 87° |
| 2026-05-06 16:09 | 51.47732 | -0.52678 | 754 ft | 166 kts | 89° |
| 2026-05-06 16:10 | 51.47740 | -0.50911 | 413 ft | 157 kts | 90° |
| 2026-05-06 16:10 | 51.47742 | -0.49275 | 243 ft | 143 kts | 89° |
| 2026-05-06 16:10 | 51.47750 | -0.47750 | 87 ft | 129 kts | 88° |
| 2026-05-06 16:10 | 51.47755 | -0.46803 | 83 ft | 42 kts | 89° |
| 2026-05-06 16:11 | 51.47756 | -0.46511 | 82 ft | 29 kts | 90° |
| 2026-05-06 16:11 | 51.47736 | -0.46198 | 81 ft | 27 kts | 127° |
| 2026-05-06 16:11 | 51.47626 | -0.46063 | 82 ft | 12 kts | 155° |
| 2026-05-06 16:11 | 51.47600 | -0.46081 | 82 ft | 0 kts | 247° |
| 2026-05-06 16:12 | 51.47596 | -0.46098 | 82 ft | 4 kts | 250° |
| 2026-05-06 16:12 | 51.47592 | -0.46138 | 81 ft | 6 kts | 263° |
| 2026-05-06 16:12 | 51.47593 | -0.46200 | 81 ft | 0 kts | 271° |
| 2026-05-06 16:13 | 51.47593 | -0.46206 | 81 ft | 2 kts | 271° |
| 2026-05-06 16:13 | 51.47595 | -0.46306 | 81 ft | 21 kts | 271° |
| 2026-05-06 16:13 | 51.47592 | -0.46539 | 81 ft | 20 kts | 266° |
| 2026-05-06 16:14 | 51.47590 | -0.46772 | 80 ft | 20 kts | 269° |
| 2026-05-06 16:14 | 51.47582 | -0.46984 | 82 ft | 18 kts | 267° |
| 2026-05-06 16:14 | 51.47580 | -0.47181 | 84 ft | 17 kts | 269° |
| 2026-05-06 16:14 | 51.47580 | -0.47398 | 84 ft | 22 kts | 269° |
| 2026-05-06 16:15 | 51.47580 | -0.47650 | 83 ft | 23 kts | 269° |
| 2026-05-06 16:15 | 51.47578 | -0.47903 | 81 ft | 23 kts | 269° |
| 2026-05-06 16:15 | 51.47577 | -0.48251 | 79 ft | 29 kts | 269° |
| 2026-05-06 16:15 | 51.47576 | -0.48552 | 81 ft | 27 kts | 270° |
| 2026-05-06 16:16 | 51.47575 | -0.48809 | 81 ft | 17 kts | 268° |
| 2026-05-06 16:16 | 51.47535 | -0.48956 | 81 ft | 14 kts | 179° |
| 2026-05-06 16:16 | 51.47485 | -0.48859 | 80 ft | 9 kts | 103° |
| 2026-05-06 16:16 | 51.47448 | -0.48830 | 80 ft | 5 kts | 176° |
| 2026-05-06 16:17 | 51.47411 | -0.48830 | 79 ft | 2 kts | 179° |
| 2026-05-06 16:17 | 51.47404 | -0.48830 | 79 ft | 0 kts | 179° |